WMT9LZ LRCL-LIPH
Flight info
| Callsign | WMT9LZ |
|---|---|
| Flight time | 1h 26m |
| Altitude | 38000 |
| Route | ELROM DCT BUDOP DCT VEBAL DCT KOTOR DCT LABIN L614 CHI |
| Aircraft | A320/M-SDE1E2E3FGIJ1J4RWXY/LB1 |
Departure
| Time | 2026-05-06 12:03 |
|---|---|
| Airport | Avram Iancu Cluj International Airport (LRCL) |
Arrival
| Time | 2026-05-06 13:30 |
|---|---|
| Airport | Treviso Airport (LIPH) |
| Time | Latitude | Longitude | Altitude | Speed | Heading |
|---|---|---|---|---|---|
| 2026-05-06 11:36 | 46.78497 | 23.69278 | 1024 ft | 0 kts | 251° |
| 2026-05-06 11:55 | 46.78498 | 23.69280 | 1024 ft | 2 kts | 251° |
| 2026-05-06 11:55 | 46.78503 | 23.69316 | 1026 ft | 4 kts | 272° |
| 2026-05-06 11:55 | 46.78497 | 23.69351 | 1024 ft | 4 kts | 313° |
| 2026-05-06 11:55 | 46.78484 | 23.69365 | 1023 ft | 0 kts | 341° |
| 2026-05-06 12:00 | 46.78497 | 23.69358 | 1024 ft | 4 kts | 341° |
| 2026-05-06 12:00 | 46.78532 | 23.69342 | 1025 ft | 6 kts | 341° |
| 2026-05-06 12:00 | 46.78587 | 23.69315 | 1024 ft | 12 kts | 341° |
| 2026-05-06 12:00 | 46.78671 | 23.69274 | 1024 ft | 14 kts | 341° |
| 2026-05-06 12:01 | 46.78767 | 23.69228 | 1025 ft | 15 kts | 341° |
| 2026-05-06 12:01 | 46.78863 | 23.69182 | 1025 ft | 13 kts | 344° |
| 2026-05-06 12:01 | 46.78935 | 23.69256 | 1027 ft | 17 kts | 69° |
| 2026-05-06 12:01 | 46.78976 | 23.69425 | 1026 ft | 19 kts | 71° |
| 2026-05-06 12:02 | 46.79002 | 23.69604 | 1023 ft | 14 kts | 86° |
| 2026-05-06 12:02 | 46.79021 | 23.69618 | 1022 ft | 1 kts | 265° |
| 2026-05-06 12:02 | 46.79012 | 23.69583 | 1026 ft | 11 kts | 251° |
| 2026-05-06 12:02 | 46.78914 | 23.69149 | 1023 ft | 84 kts | 251° |
| 2026-05-06 12:03 | 46.78664 | 23.68040 | 1035 ft | 143 kts | 252° |
| 2026-05-06 12:03 | 46.78324 | 23.66527 | 1419 ft | 159 kts | 247° |
| 2026-05-06 12:03 | 46.77987 | 23.65008 | 2184 ft | 158 kts | 248° |
| 2026-05-06 12:03 | 46.77635 | 23.63459 | 2836 ft | 167 kts | 250° |
| 2026-05-06 12:04 | 46.77244 | 23.61743 | 3090 ft | 190 kts | 249° |
| 2026-05-06 12:04 | 46.76798 | 23.59808 | 3328 ft | 214 kts | 249° |
| 2026-05-06 12:04 | 46.76296 | 23.57632 | 3648 ft | 238 kts | 249° |
| 2026-05-06 12:04 | 46.75747 | 23.55227 | 4200 ft | 257 kts | 251° |
| 2026-05-06 12:05 | 46.75475 | 23.52617 | 5124 ft | 266 kts | 265° |
| 2026-05-06 12:05 | 46.75411 | 23.49915 | 6072 ft | 268 kts | 265° |
| 2026-05-06 12:05 | 46.75349 | 23.47183 | 6953 ft | 272 kts | 266° |
| 2026-05-06 12:05 | 46.75288 | 23.44417 | 7860 ft | 273 kts | 265° |
| 2026-05-06 12:06 | 46.75224 | 23.41630 | 8744 ft | 276 kts | 265° |
| 2026-05-06 12:06 | 46.75158 | 23.38819 | 9632 ft | 279 kts | 265° |
| 2026-05-06 12:06 | 46.75085 | 23.35956 | 10278 ft | 291 kts | 265° |
| 2026-05-06 12:06 | 46.75001 | 23.32895 | 10518 ft | 314 kts | 265° |
| 2026-05-06 12:07 | 46.74912 | 23.29655 | 11037 ft | 323 kts | 265° |
| 2026-05-06 12:07 | 46.74826 | 23.26404 | 11710 ft | 328 kts | 265° |
| 2026-05-06 12:07 | 46.74740 | 23.23059 | 12414 ft | 332 kts | 265° |
| 2026-05-06 12:07 | 46.74652 | 23.19674 | 13168 ft | 336 kts | 265° |
| 2026-05-06 12:08 | 46.74560 | 23.16244 | 13851 ft | 341 kts | 265° |
| 2026-05-06 12:08 | 46.74463 | 23.12774 | 14481 ft | 344 kts | 265° |
| 2026-05-06 12:08 | 46.74362 | 23.09277 | 15113 ft | 347 kts | 265° |
| 2026-05-06 12:08 | 46.74260 | 23.05756 | 15764 ft | 349 kts | 265° |
| 2026-05-06 12:09 | 46.74157 | 23.02209 | 16393 ft | 352 kts | 265° |
| 2026-05-06 12:09 | 46.74056 | 22.98638 | 17028 ft | 354 kts | 266° |
| 2026-05-06 12:09 | 46.73954 | 22.95033 | 17633 ft | 358 kts | 266° |
| 2026-05-06 12:09 | 46.73849 | 22.91404 | 18267 ft | 360 kts | 266° |
| 2026-05-06 12:10 | 46.73739 | 22.87737 | 18797 ft | 363 kts | 265° |
| 2026-05-06 12:10 | 46.73627 | 22.84048 | 19337 ft | 366 kts | 265° |
| 2026-05-06 12:10 | 46.73512 | 22.80327 | 19879 ft | 369 kts | 266° |
| 2026-05-06 12:10 | 46.73395 | 22.76578 | 20438 ft | 372 kts | 266° |
| 2026-05-06 12:11 | 46.73276 | 22.72787 | 20974 ft | 375 kts | 266° |
| 2026-05-06 12:11 | 46.73156 | 22.68984 | 21509 ft | 377 kts | 266° |
| 2026-05-06 12:11 | 46.73035 | 22.65163 | 22088 ft | 377 kts | 266° |
| 2026-05-06 12:11 | 46.72911 | 22.61321 | 22553 ft | 382 kts | 266° |
| 2026-05-06 12:12 | 46.72782 | 22.57443 | 23039 ft | 385 kts | 267° |
| 2026-05-06 12:12 | 46.72653 | 22.53530 | 23525 ft | 389 kts | 267° |
| 2026-05-06 12:12 | 46.72523 | 22.49593 | 23959 ft | 391 kts | 267° |
| 2026-05-06 12:12 | 46.72390 | 22.45634 | 24430 ft | 392 kts | 267° |
| 2026-05-06 12:13 | 46.72256 | 22.41652 | 24817 ft | 395 kts | 267° |
| 2026-05-06 12:13 | 46.72119 | 22.37649 | 25234 ft | 397 kts | 267° |
| 2026-05-06 12:13 | 46.71981 | 22.33618 | 25638 ft | 399 kts | 267° |
| 2026-05-06 12:13 | 46.71843 | 22.29569 | 26060 ft | 401 kts | 267° |
| 2026-05-06 12:14 | 46.71702 | 22.25507 | 26476 ft | 402 kts | 267° |
| 2026-05-06 12:14 | 46.71557 | 22.21426 | 26894 ft | 404 kts | 267° |
| 2026-05-06 12:14 | 46.71411 | 22.17335 | 27317 ft | 405 kts | 267° |
| 2026-05-06 12:14 | 46.71259 | 22.13227 | 27729 ft | 407 kts | 267° |
| 2026-05-06 12:15 | 46.71105 | 22.09102 | 28154 ft | 408 kts | 267° |
| 2026-05-06 12:15 | 46.70950 | 22.04965 | 28574 ft | 410 kts | 267° |
| 2026-05-06 12:15 | 46.70794 | 22.00814 | 28991 ft | 411 kts | 267° |
| 2026-05-06 12:15 | 46.70636 | 21.96644 | 29402 ft | 413 kts | 267° |
| 2026-05-06 12:16 | 46.70478 | 21.92460 | 29819 ft | 415 kts | 267° |
| 2026-05-06 12:16 | 46.70316 | 21.88257 | 30183 ft | 416 kts | 266° |
| 2026-05-06 12:16 | 46.70153 | 21.84093 | 30503 ft | 418 kts | 266° |
| 2026-05-06 12:16 | 46.69981 | 21.79794 | 30826 ft | 420 kts | 266° |
| 2026-05-06 12:17 | 46.69811 | 21.75597 | 31165 ft | 421 kts | 266° |
| 2026-05-06 12:17 | 46.69639 | 21.71349 | 31621 ft | 420 kts | 266° |
| 2026-05-06 12:17 | 46.69470 | 21.67109 | 32074 ft | 419 kts | 266° |
| 2026-05-06 12:17 | 46.69298 | 21.62884 | 32538 ft | 417 kts | 266° |
| 2026-05-06 12:18 | 46.69125 | 21.58673 | 32990 ft | 416 kts | 266° |
| 2026-05-06 12:18 | 46.68952 | 21.54469 | 33463 ft | 415 kts | 266° |
| 2026-05-06 12:18 | 46.68756 | 21.50287 | 33948 ft | 413 kts | 263° |
| 2026-05-06 12:18 | 46.68247 | 21.46182 | 34355 ft | 411 kts | 258° |
| 2026-05-06 12:19 | 46.67650 | 21.42123 | 34774 ft | 409 kts | 258° |
| 2026-05-06 12:19 | 46.67056 | 21.38079 | 35193 ft | 407 kts | 258° |
| 2026-05-06 12:19 | 46.66467 | 21.34064 | 35609 ft | 405 kts | 258° |
| 2026-05-06 12:19 | 46.65879 | 21.30069 | 36022 ft | 402 kts | 258° |
| 2026-05-06 12:20 | 46.65296 | 21.26095 | 36425 ft | 400 kts | 258° |
| 2026-05-06 12:20 | 46.64715 | 21.22152 | 36802 ft | 398 kts | 258° |
| 2026-05-06 12:20 | 46.64133 | 21.18230 | 37204 ft | 395 kts | 258° |
| 2026-05-06 12:20 | 46.63552 | 21.14339 | 37607 ft | 392 kts | 258° |
| 2026-05-06 12:21 | 46.62974 | 21.10467 | 37909 ft | 391 kts | 258° |
| 2026-05-06 12:21 | 46.62396 | 21.06599 | 37959 ft | 390 kts | 258° |
| 2026-05-06 12:21 | 46.61245 | 20.98911 | 37954 ft | 389 kts | 258° |
| 2026-05-06 12:22 | 46.60086 | 20.91234 | 37952 ft | 388 kts | 258° |
| 2026-05-06 12:22 | 46.58927 | 20.83571 | 37949 ft | 388 kts | 258° |
| 2026-05-06 12:23 | 46.57960 | 20.77203 | 37952 ft | 388 kts | 258° |
| 2026-05-06 12:23 | 46.56786 | 20.69549 | 37950 ft | 388 kts | 258° |
| 2026-05-06 12:24 | 46.55421 | 20.60649 | 37962 ft | 388 kts | 258° |
| 2026-05-06 12:24 | 46.54437 | 20.54240 | 37963 ft | 388 kts | 257° |
| 2026-05-06 12:25 | 46.53258 | 20.46609 | 37969 ft | 387 kts | 257° |
| 2026-05-06 12:25 | 46.52072 | 20.39003 | 37975 ft | 386 kts | 257° |
| 2026-05-06 12:26 | 46.50883 | 20.31412 | 37981 ft | 385 kts | 257° |
| 2026-05-06 12:26 | 46.49678 | 20.23741 | 37956 ft | 396 kts | 257° |
| 2026-05-06 12:27 | 46.48432 | 20.15860 | 37950 ft | 403 kts | 257° |
| 2026-05-06 12:27 | 46.47170 | 20.07922 | 37954 ft | 404 kts | 257° |
| 2026-05-06 12:28 | 46.45904 | 19.99982 | 37951 ft | 404 kts | 257° |
| 2026-05-06 12:28 | 46.44632 | 19.92038 | 37950 ft | 404 kts | 257° |
| 2026-05-06 12:29 | 46.43356 | 19.84100 | 37958 ft | 404 kts | 257° |
| 2026-05-06 12:29 | 46.42087 | 19.76214 | 37961 ft | 405 kts | 257° |
| 2026-05-06 12:30 | 46.40799 | 19.68271 | 37952 ft | 405 kts | 257° |
| 2026-05-06 12:30 | 46.39502 | 19.60341 | 37960 ft | 405 kts | 256° |
| 2026-05-06 12:31 | 46.38196 | 19.52409 | 37957 ft | 405 kts | 256° |
| 2026-05-06 12:31 | 46.36883 | 19.44473 | 37953 ft | 405 kts | 256° |
| 2026-05-06 12:32 | 46.35570 | 19.36546 | 37953 ft | 405 kts | 256° |
| 2026-05-06 12:32 | 46.34250 | 19.28601 | 37933 ft | 406 kts | 256° |
| 2026-05-06 12:33 | 46.32924 | 19.20656 | 37932 ft | 406 kts | 256° |
| 2026-05-06 12:33 | 46.31594 | 19.12707 | 37937 ft | 407 kts | 256° |
| 2026-05-06 12:34 | 46.30257 | 19.04734 | 37921 ft | 408 kts | 256° |
| 2026-05-06 12:34 | 46.28902 | 18.96748 | 37927 ft | 409 kts | 256° |
| 2026-05-06 12:35 | 46.27533 | 18.88760 | 37926 ft | 410 kts | 256° |
| 2026-05-06 12:35 | 46.26156 | 18.80764 | 37932 ft | 410 kts | 256° |
| 2026-05-06 12:36 | 46.24787 | 18.72814 | 37921 ft | 410 kts | 256° |
| 2026-05-06 12:36 | 46.23412 | 18.64813 | 37947 ft | 411 kts | 255° |
| 2026-05-06 12:37 | 46.22035 | 18.56808 | 37942 ft | 411 kts | 255° |
| 2026-05-06 12:37 | 46.20638 | 18.48806 | 37943 ft | 411 kts | 255° |
| 2026-05-06 12:38 | 46.19235 | 18.40801 | 37940 ft | 411 kts | 255° |
| 2026-05-06 12:38 | 46.17827 | 18.32799 | 37947 ft | 412 kts | 255° |
| 2026-05-06 12:39 | 46.16408 | 18.24796 | 37950 ft | 412 kts | 255° |
| 2026-05-06 12:39 | 46.14997 | 18.16796 | 37956 ft | 412 kts | 255° |
| 2026-05-06 12:40 | 46.13573 | 18.08787 | 37931 ft | 413 kts | 255° |
| 2026-05-06 12:40 | 46.12138 | 18.00762 | 37926 ft | 414 kts | 255° |
| 2026-05-06 12:41 | 46.10694 | 17.92724 | 37932 ft | 414 kts | 255° |
| 2026-05-06 12:41 | 46.09245 | 17.84688 | 37937 ft | 415 kts | 255° |
| 2026-05-06 12:42 | 46.07788 | 17.76646 | 37931 ft | 415 kts | 255° |
| 2026-05-06 12:42 | 46.06321 | 17.68608 | 37921 ft | 415 kts | 255° |
| 2026-05-06 12:43 | 46.04851 | 17.60571 | 37926 ft | 416 kts | 255° |
| 2026-05-06 12:43 | 46.03377 | 17.52523 | 37930 ft | 416 kts | 255° |
| 2026-05-06 12:44 | 46.01890 | 17.44480 | 37928 ft | 416 kts | 254° |
| 2026-05-06 12:44 | 46.00397 | 17.36450 | 37934 ft | 415 kts | 254° |
| 2026-05-06 12:45 | 45.98773 | 17.28492 | 37931 ft | 415 kts | 246° |
| 2026-05-06 12:46 | 45.95259 | 17.17128 | 37941 ft | 415 kts | 246° |
| 2026-05-06 12:46 | 45.92924 | 17.09598 | 37927 ft | 415 kts | 246° |
| 2026-05-06 12:47 | 45.90566 | 17.02026 | 37931 ft | 416 kts | 246° |
| 2026-05-06 12:47 | 45.88202 | 16.94458 | 37931 ft | 416 kts | 245° |
| 2026-05-06 12:48 | 45.85833 | 16.86890 | 37934 ft | 415 kts | 245° |
| 2026-05-06 12:48 | 45.83465 | 16.79335 | 37933 ft | 415 kts | 245° |
| 2026-05-06 12:49 | 45.81087 | 16.71793 | 37952 ft | 415 kts | 245° |
| 2026-05-06 12:49 | 45.78695 | 16.64248 | 37943 ft | 416 kts | 245° |
| 2026-05-06 12:50 | 45.76300 | 16.56696 | 37933 ft | 416 kts | 245° |
| 2026-05-06 12:50 | 45.73902 | 16.49143 | 37926 ft | 417 kts | 245° |
| 2026-05-06 12:51 | 45.71494 | 16.41583 | 37935 ft | 418 kts | 245° |
| 2026-05-06 12:51 | 45.69072 | 16.34010 | 37936 ft | 419 kts | 245° |
| 2026-05-06 12:52 | 45.66646 | 16.26450 | 37937 ft | 418 kts | 245° |
| 2026-05-06 12:52 | 45.64214 | 16.18890 | 37951 ft | 419 kts | 245° |
| 2026-05-06 12:53 | 45.61775 | 16.11318 | 37941 ft | 420 kts | 245° |
| 2026-05-06 12:53 | 45.59338 | 16.03800 | 37938 ft | 420 kts | 244° |
| 2026-05-06 12:54 | 45.56878 | 15.96223 | 37945 ft | 421 kts | 244° |
| 2026-05-06 12:54 | 45.54411 | 15.88649 | 37948 ft | 421 kts | 244° |
| 2026-05-06 12:55 | 45.51943 | 15.81077 | 37941 ft | 421 kts | 244° |
| 2026-05-06 12:55 | 45.49472 | 15.73507 | 37963 ft | 421 kts | 244° |
| 2026-05-06 12:56 | 45.46992 | 15.65957 | 37964 ft | 420 kts | 244° |
| 2026-05-06 12:56 | 45.44527 | 15.58431 | 37965 ft | 419 kts | 246° |
| 2026-05-06 12:57 | 45.42943 | 15.50455 | 37961 ft | 419 kts | 254° |
| 2026-05-06 12:57 | 45.41563 | 15.42395 | 37957 ft | 419 kts | 254° |
| 2026-05-06 12:58 | 45.40170 | 15.34352 | 37962 ft | 418 kts | 254° |
| 2026-05-06 12:58 | 45.38773 | 15.26316 | 37959 ft | 418 kts | 254° |
| 2026-05-06 12:59 | 45.37372 | 15.18289 | 37963 ft | 418 kts | 254° |
| 2026-05-06 12:59 | 45.35965 | 15.10275 | 37961 ft | 418 kts | 253° |
| 2026-05-06 13:00 | 45.34557 | 15.02269 | 37970 ft | 417 kts | 253° |
| 2026-05-06 13:00 | 45.33143 | 14.94294 | 37995 ft | 416 kts | 253° |
| 2026-05-06 13:01 | 45.31724 | 14.86330 | 38004 ft | 416 kts | 253° |
| 2026-05-06 13:01 | 45.30300 | 14.78372 | 38007 ft | 416 kts | 253° |
| 2026-05-06 13:02 | 45.28869 | 14.70393 | 38005 ft | 417 kts | 253° |
| 2026-05-06 13:02 | 45.27435 | 14.62410 | 38008 ft | 418 kts | 253° |
| 2026-05-06 13:03 | 45.25994 | 14.54409 | 38009 ft | 418 kts | 253° |
| 2026-05-06 13:03 | 45.24534 | 14.46418 | 38004 ft | 418 kts | 253° |
| 2026-05-06 13:04 | 45.23079 | 14.38482 | 38032 ft | 419 kts | 253° |
| 2026-05-06 13:04 | 45.21620 | 14.30476 | 38017 ft | 419 kts | 252° |
| 2026-05-06 13:05 | 45.20149 | 14.22483 | 38005 ft | 419 kts | 252° |
| 2026-05-06 13:05 | 45.18665 | 14.14481 | 37686 ft | 420 kts | 252° |
| 2026-05-06 13:05 | 45.17921 | 14.10489 | 37401 ft | 418 kts | 252° |
| 2026-05-06 13:06 | 45.17177 | 14.06507 | 37128 ft | 418 kts | 252° |
| 2026-05-06 13:06 | 45.16431 | 14.02518 | 36859 ft | 418 kts | 252° |
| 2026-05-06 13:06 | 45.15689 | 13.98540 | 36547 ft | 419 kts | 252° |
| 2026-05-06 13:06 | 45.14945 | 13.94542 | 35939 ft | 421 kts | 252° |
| 2026-05-06 13:07 | 45.14202 | 13.90558 | 35397 ft | 414 kts | 252° |
| 2026-05-06 13:07 | 45.13468 | 13.86625 | 34882 ft | 412 kts | 251° |
| 2026-05-06 13:07 | 45.12726 | 13.82678 | 34351 ft | 415 kts | 251° |
| 2026-05-06 13:07 | 45.11982 | 13.78745 | 33891 ft | 414 kts | 251° |
| 2026-05-06 13:08 | 45.11236 | 13.74807 | 33392 ft | 414 kts | 251° |
| 2026-05-06 13:08 | 45.10487 | 13.70862 | 32923 ft | 415 kts | 251° |
| 2026-05-06 13:08 | 45.09737 | 13.66911 | 32444 ft | 416 kts | 252° |
| 2026-05-06 13:08 | 45.08992 | 13.62986 | 32078 ft | 409 kts | 252° |
| 2026-05-06 13:09 | 45.08258 | 13.59123 | 31584 ft | 404 kts | 252° |
| 2026-05-06 13:09 | 45.07526 | 13.55297 | 31013 ft | 401 kts | 252° |
| 2026-05-06 13:09 | 45.06812 | 13.51568 | 30601 ft | 396 kts | 252° |
| 2026-05-06 13:09 | 45.06095 | 13.47828 | 30127 ft | 393 kts | 252° |
| 2026-05-06 13:10 | 45.05380 | 13.44118 | 29636 ft | 389 kts | 252° |
| 2026-05-06 13:10 | 45.04673 | 13.40440 | 29201 ft | 387 kts | 252° |
| 2026-05-06 13:10 | 45.03966 | 13.36783 | 28776 ft | 385 kts | 251° |
| 2026-05-06 13:10 | 45.03262 | 13.33145 | 28362 ft | 383 kts | 251° |
| 2026-05-06 13:11 | 45.02562 | 13.29527 | 27954 ft | 381 kts | 251° |
| 2026-05-06 13:11 | 45.01864 | 13.25924 | 27540 ft | 379 kts | 251° |
| 2026-05-06 13:11 | 45.01167 | 13.22335 | 27141 ft | 378 kts | 251° |
| 2026-05-06 13:11 | 45.00469 | 13.18763 | 26741 ft | 376 kts | 251° |
| 2026-05-06 13:12 | 44.99772 | 13.15207 | 26356 ft | 375 kts | 251° |
| 2026-05-06 13:12 | 44.99091 | 13.11655 | 25929 ft | 375 kts | 254° |
| 2026-05-06 13:12 | 44.98813 | 13.07987 | 25494 ft | 378 kts | 266° |
| 2026-05-06 13:12 | 44.99102 | 13.04282 | 25007 ft | 380 kts | 274° |
| 2026-05-06 13:13 | 44.99510 | 13.00607 | 24544 ft | 378 kts | 274° |
| 2026-05-06 13:13 | 44.99779 | 12.98181 | 24230 ft | 377 kts | 274° |
| 2026-05-06 13:13 | 45.00180 | 12.94534 | 23743 ft | 375 kts | 274° |
| 2026-05-06 13:13 | 45.00576 | 12.90895 | 23222 ft | 374 kts | 273° |
| 2026-05-06 13:14 | 45.00960 | 12.87274 | 22701 ft | 371 kts | 273° |
| 2026-05-06 13:14 | 45.01340 | 12.83676 | 22204 ft | 369 kts | 273° |
| 2026-05-06 13:14 | 45.01716 | 12.80103 | 21737 ft | 366 kts | 274° |
| 2026-05-06 13:14 | 45.02090 | 12.76555 | 21268 ft | 364 kts | 274° |
| 2026-05-06 13:15 | 45.02462 | 12.73033 | 20801 ft | 361 kts | 274° |
| 2026-05-06 13:15 | 45.02834 | 12.69536 | 20336 ft | 359 kts | 274° |
| 2026-05-06 13:15 | 45.03201 | 12.66064 | 19863 ft | 356 kts | 274° |
| 2026-05-06 13:15 | 45.03562 | 12.62623 | 19405 ft | 353 kts | 274° |
| 2026-05-06 13:16 | 45.03922 | 12.59202 | 18908 ft | 351 kts | 275° |
| 2026-05-06 13:16 | 45.04678 | 12.55897 | 17991 ft | 358 kts | 294° |
| 2026-05-06 13:16 | 45.06136 | 12.53039 | 17068 ft | 358 kts | 304° |
| 2026-05-06 13:16 | 45.07710 | 12.50346 | 16487 ft | 354 kts | 304° |
| 2026-05-06 13:17 | 45.09275 | 12.47661 | 16015 ft | 354 kts | 304° |
| 2026-05-06 13:17 | 45.10836 | 12.44976 | 15558 ft | 352 kts | 304° |
| 2026-05-06 13:17 | 45.12385 | 12.42303 | 15122 ft | 350 kts | 304° |
| 2026-05-06 13:17 | 45.13926 | 12.39643 | 14687 ft | 348 kts | 304° |
| 2026-05-06 13:18 | 45.15460 | 12.36995 | 14263 ft | 347 kts | 304° |
| 2026-05-06 13:18 | 45.16985 | 12.34351 | 13820 ft | 346 kts | 304° |
| 2026-05-06 13:18 | 45.18501 | 12.31714 | 13358 ft | 344 kts | 304° |
| 2026-05-06 13:18 | 45.20009 | 12.29089 | 12929 ft | 342 kts | 304° |
| 2026-05-06 13:19 | 45.21508 | 12.26475 | 12504 ft | 340 kts | 304° |
| 2026-05-06 13:19 | 45.22994 | 12.23880 | 12074 ft | 338 kts | 304° |
| 2026-05-06 13:19 | 45.24472 | 12.21305 | 11651 ft | 335 kts | 304° |
| 2026-05-06 13:19 | 45.25919 | 12.18787 | 11242 ft | 333 kts | 304° |
| 2026-05-06 13:20 | 45.27397 | 12.16211 | 10821 ft | 331 kts | 304° |
| 2026-05-06 13:20 | 45.28841 | 12.13685 | 10409 ft | 328 kts | 304° |
| 2026-05-06 13:20 | 45.30275 | 12.11176 | 9997 ft | 326 kts | 304° |
| 2026-05-06 13:20 | 45.31696 | 12.08693 | 9758 ft | 318 kts | 304° |
| 2026-05-06 13:21 | 45.33065 | 12.06308 | 9624 ft | 303 kts | 304° |
| 2026-05-06 13:21 | 45.34364 | 12.04047 | 9318 ft | 289 kts | 304° |
| 2026-05-06 13:21 | 45.35618 | 12.01855 | 8787 ft | 283 kts | 304° |
| 2026-05-06 13:21 | 45.36850 | 11.99684 | 8238 ft | 281 kts | 304° |
| 2026-05-06 13:22 | 45.38067 | 11.97531 | 7771 ft | 278 kts | 304° |
| 2026-05-06 13:22 | 45.39273 | 11.95407 | 7367 ft | 273 kts | 304° |
| 2026-05-06 13:22 | 45.40455 | 11.93323 | 7022 ft | 268 kts | 304° |
| 2026-05-06 13:22 | 45.41736 | 11.91355 | 6682 ft | 277 kts | 314° |
| 2026-05-06 13:23 | 45.43267 | 11.89667 | 6304 ft | 279 kts | 318° |
| 2026-05-06 13:23 | 45.44793 | 11.88032 | 5940 ft | 278 kts | 319° |
| 2026-05-06 13:23 | 45.46336 | 11.86379 | 5619 ft | 275 kts | 319° |
| 2026-05-06 13:23 | 45.47908 | 11.84849 | 5300 ft | 276 kts | 330° |
| 2026-05-06 13:24 | 45.49697 | 11.83994 | 5238 ft | 268 kts | 347° |
| 2026-05-06 13:24 | 45.51528 | 11.83900 | 5165 ft | 260 kts | 4° |
| 2026-05-06 13:24 | 45.53260 | 11.84503 | 5026 ft | 254 kts | 20° |
| 2026-05-06 13:24 | 45.54789 | 11.85720 | 4820 ft | 251 kts | 37° |
| 2026-05-06 13:25 | 45.56021 | 11.87449 | 4553 ft | 248 kts | 53° |
| 2026-05-06 13:25 | 45.56872 | 11.89568 | 4249 ft | 245 kts | 70° |
| 2026-05-06 13:25 | 45.57480 | 11.91834 | 3923 ft | 245 kts | 71° |
| 2026-05-06 13:25 | 45.58087 | 11.94093 | 3599 ft | 243 kts | 71° |
| 2026-05-06 13:26 | 45.58688 | 11.96332 | 3282 ft | 239 kts | 71° |
| 2026-05-06 13:26 | 45.59271 | 11.98504 | 2964 ft | 229 kts | 73° |
| 2026-05-06 13:26 | 45.59830 | 12.00588 | 2664 ft | 220 kts | 70° |
| 2026-05-06 13:26 | 45.60364 | 12.02583 | 2383 ft | 211 kts | 70° |
| 2026-05-06 13:27 | 45.60876 | 12.04499 | 2114 ft | 201 kts | 71° |
| 2026-05-06 13:27 | 45.61348 | 12.06263 | 1855 ft | 181 kts | 71° |
| 2026-05-06 13:27 | 45.61778 | 12.07871 | 1619 ft | 167 kts | 71° |
| 2026-05-06 13:27 | 45.62166 | 12.09326 | 1399 ft | 149 kts | 70° |
| 2026-05-06 13:28 | 45.62526 | 12.10674 | 1187 ft | 143 kts | 70° |
| 2026-05-06 13:28 | 45.62875 | 12.11984 | 1000 ft | 140 kts | 71° |
| 2026-05-06 13:28 | 45.63221 | 12.13286 | 806 ft | 140 kts | 72° |
| 2026-05-06 13:28 | 45.63573 | 12.14583 | 614 ft | 139 kts | 71° |
| 2026-05-06 13:29 | 45.63917 | 12.15873 | 400 ft | 137 kts | 74° |
| 2026-05-06 13:29 | 45.64260 | 12.17166 | 236 ft | 139 kts | 72° |
| 2026-05-06 13:29 | 45.64600 | 12.18457 | 84 ft | 135 kts | 72° |
| 2026-05-06 13:29 | 45.64885 | 12.19536 | 59 ft | 92 kts | 69° |
| 2026-05-06 13:30 | 45.65044 | 12.20106 | 61 ft | 33 kts | 59° |
| 2026-05-06 13:30 | 45.65126 | 12.20215 | 57 ft | 12 kts | 15° |
| 2026-05-06 13:30 | 45.65198 | 12.20268 | 59 ft | 7 kts | 23° |
| 2026-05-06 13:30 | 45.65244 | 12.20295 | 60 ft | 8 kts | 23° |
| 2026-05-06 13:31 | 45.65294 | 12.20349 | 57 ft | 6 kts | 64° |
| 2026-05-06 13:31 | 45.65306 | 12.20395 | 58 ft | 5 kts | 69° |
| 2026-05-06 13:31 | 45.65317 | 12.20439 | 58 ft | 4 kts | 69° |
| 2026-05-06 13:31 | 45.65320 | 12.20448 | 58 ft | 4 kts | 69° |
| 2026-05-06 13:32 | 45.65332 | 12.20493 | 62 ft | 5 kts | 69° |
| 2026-05-06 13:32 | 45.65356 | 12.20506 | 62 ft | 6 kts | 330° |
| 2026-05-06 13:32 | 45.65383 | 12.20491 | 60 ft | 3 kts | 341° |
| 2026-05-06 13:32 | 45.65398 | 12.20484 | 61 ft | 0 kts | 340° |